createdAt,value
2018-08-16T00:00:38.402Z,19.20
2018-08-16T00:03:06.601Z,19.30
2018-08-16T00:05:34.642Z,19.20
2018-08-16T00:08:02.705Z,19.20
2018-08-16T00:10:30.748Z,19.20
2018-08-16T00:12:58.786Z,19.20
2018-08-16T00:15:26.821Z,19.10
2018-08-16T00:17:54.869Z,19.10
2018-08-16T00:20:22.998Z,19.10
2018-08-16T00:22:51.021Z,19.00
2018-08-16T00:25:19.057Z,19.00
2018-08-16T00:27:47.097Z,19.00
2018-08-16T00:30:16.447Z,19.00
2018-08-16T00:32:44.829Z,19.00
2018-08-16T00:35:12.861Z,19.00
2018-08-16T00:37:41.141Z,18.90
2018-08-16T00:40:11.077Z,19.00
2018-08-16T00:42:39.131Z,18.90
2018-08-16T00:45:08.193Z,18.90
2018-08-16T00:47:36.370Z,18.90
2018-08-16T00:50:06.469Z,18.90
2018-08-16T00:52:35.129Z,18.90
2018-08-16T00:55:03.534Z,18.90
2018-08-16T00:57:31.573Z,18.80
2018-08-16T00:59:59.617Z,18.80
2018-08-16T01:02:27.646Z,18.80
2018-08-16T01:04:55.689Z,18.80
2018-08-16T01:07:23.941Z,18.70
2018-08-16T01:09:51.986Z,18.80
2018-08-16T01:12:20.633Z,18.80
2018-08-16T01:14:48.677Z,18.70
2018-08-16T01:17:16.769Z,18.70
2018-08-16T01:19:44.778Z,18.70
2018-08-16T01:22:12.849Z,18.70
2018-08-16T01:24:40.917Z,18.70
2018-08-16T01:27:08.961Z,18.60
2018-08-16T01:29:37.006Z,18.60
2018-08-16T01:32:05.072Z,18.60
2018-08-16T01:34:33.523Z,18.60
2018-08-16T01:37:01.556Z,18.60
2018-08-16T01:39:29.598Z,18.60
2018-08-16T01:41:57.650Z,18.50
2018-08-16T01:44:25.734Z,18.50
2018-08-16T01:46:54.079Z,18.50
2018-08-16T01:49:29.673Z,18.50
2018-08-16T01:51:57.906Z,18.50
2018-08-16T01:54:26.329Z,18.50
2018-08-16T01:56:54.430Z,18.40
2018-08-16T01:59:22.492Z,18.40
2018-08-16T02:01:51.046Z,18.40
2018-08-16T02:04:19.127Z,18.40
2018-08-16T02:06:47.706Z,18.40
2018-08-16T02:09:15.757Z,18.40
2018-08-16T02:11:43.827Z,18.30
2018-08-16T02:14:11.898Z,18.30
2018-08-16T02:16:40.089Z,18.30
2018-08-16T02:19:08.364Z,18.30
2018-08-16T02:21:36.841Z,18.30
2018-08-16T02:24:05.250Z,18.30
2018-08-16T02:26:33.485Z,18.30
2018-08-16T02:29:01.778Z,18.20
2018-08-16T02:31:29.847Z,18.20
2018-08-16T02:33:57.915Z,18.20
2018-08-16T02:36:26.399Z,18.20
2018-08-16T02:38:54.769Z,18.20
2018-08-16T02:41:22.849Z,18.20
2018-08-16T02:43:50.917Z,18.20
2018-08-16T02:46:18.974Z,18.20
2018-08-16T02:48:47.034Z,18.20
2018-08-16T02:51:15.287Z,18.20
2018-08-16T02:53:43.411Z,18.10
2018-08-16T02:56:11.473Z,18.10
2018-08-16T02:58:39.506Z,18.10
2018-08-16T03:01:07.584Z,18.10
2018-08-16T03:03:35.626Z,18.10
2018-08-16T03:06:03.732Z,18.00
2018-08-16T03:08:31.762Z,18.00
2018-08-16T03:10:59.828Z,18.00
2018-08-16T03:13:27.890Z,18.00
2018-08-16T03:15:55.941Z,18.00
2018-08-16T03:18:23.985Z,18.00
2018-08-16T03:20:52.137Z,18.00
2018-08-16T03:23:20.177Z,18.00
2018-08-16T03:25:48.233Z,17.90
2018-08-16T03:28:16.290Z,17.90
2018-08-16T03:30:44.363Z,17.90
2018-08-16T03:33:12.432Z,17.80
2018-08-16T03:35:40.481Z,17.80
2018-08-16T03:38:08.530Z,17.80
2018-08-16T03:40:36.598Z,17.80
2018-08-16T03:43:04.799Z,17.80
2018-08-16T03:45:32.861Z,17.80
2018-08-16T03:48:01.249Z,17.80
2018-08-16T03:50:29.499Z,17.80
2018-08-16T03:52:57.581Z,17.70
2018-08-16T03:55:25.792Z,17.70
2018-08-16T03:57:53.833Z,17.70
2018-08-16T04:00:21.896Z,17.70
2018-08-16T04:02:49.945Z,17.70
2018-08-16T04:05:18.226Z,17.70
2018-08-16T04:07:46.269Z,17.70
2018-08-16T04:10:14.321Z,17.70
2018-08-16T04:12:42.373Z,17.70
2018-08-16T04:15:10.444Z,17.70
2018-08-16T04:17:38.528Z,17.70
2018-08-16T04:20:07.030Z,17.70
2018-08-16T04:22:35.725Z,17.70
2018-08-16T04:25:04.317Z,16.30
2018-08-16T04:27:32.591Z,17.70
2018-08-16T04:30:02.573Z,17.70
2018-08-16T04:32:30.657Z,17.70
2018-08-16T04:34:59.066Z,17.70
2018-08-16T04:37:27.127Z,17.70
2018-08-16T04:39:55.224Z,17.70
2018-08-16T04:42:23.285Z,17.70
2018-08-16T04:44:51.341Z,17.70
2018-08-16T04:47:19.417Z,17.70
2018-08-16T04:49:47.482Z,17.70
2018-08-16T04:52:15.546Z,17.70
2018-08-16T04:54:43.606Z,17.70
2018-08-16T04:57:11.681Z,17.70
2018-08-16T04:59:39.738Z,17.80
2018-08-16T05:02:07.789Z,17.80
2018-08-16T05:04:35.896Z,17.80
2018-08-16T05:07:03.973Z,17.80
2018-08-16T05:09:32.037Z,17.90
2018-08-16T05:12:00.114Z,17.90
2018-08-16T05:14:28.190Z,17.90
2018-08-16T05:16:56.275Z,18.00
2018-08-16T05:19:24.342Z,18.00
2018-08-16T05:21:52.404Z,18.00
2018-08-16T05:24:21.318Z,18.10
2018-08-16T05:26:49.588Z,18.10
2018-08-16T05:29:17.653Z,18.10
2018-08-16T05:31:45.765Z,18.10
2018-08-16T05:34:13.771Z,18.10
2018-08-16T05:36:41.816Z,18.20
2018-08-16T05:39:11.921Z,18.20
2018-08-16T05:41:40.120Z,18.20
2018-08-16T05:44:08.477Z,18.20
2018-08-16T05:46:36.584Z,18.30
2018-08-16T05:49:04.661Z,18.30
2018-08-16T05:51:32.733Z,18.40
2018-08-16T05:54:00.798Z,18.40
2018-08-16T05:56:28.896Z,18.40
2018-08-16T05:58:56.936Z,18.50
2018-08-16T06:01:25.041Z,18.60
2018-08-16T06:03:53.133Z,18.60
2018-08-16T06:06:22.780Z,18.70
2018-08-16T06:08:50.829Z,18.80
2018-08-16T06:11:19.085Z,18.90
2018-08-16T06:13:47.301Z,18.90
2018-08-16T06:16:15.523Z,19.00
2018-08-16T06:18:43.601Z,19.10
2018-08-16T06:21:11.697Z,19.20
2018-08-16T06:23:39.762Z,19.20
2018-08-16T06:26:07.806Z,19.20
2018-08-16T06:28:35.878Z,19.20
2018-08-16T06:31:04.046Z,19.30
2018-08-16T06:33:32.230Z,19.40
2018-08-16T06:36:00.299Z,19.60
2018-08-16T06:38:28.366Z,19.70
2018-08-16T06:40:56.629Z,19.80
2018-08-16T06:43:24.716Z,19.90
2018-08-16T06:45:52.794Z,20.00
2018-08-16T06:48:20.880Z,20.10
2018-08-16T06:50:48.929Z,20.10
2018-08-16T06:53:16.990Z,20.20
2018-08-16T06:55:45.029Z,20.20
2018-08-16T06:58:13.103Z,20.20
2018-08-16T07:00:41.227Z,20.20
2018-08-16T07:03:09.577Z,20.20
2018-08-16T07:05:37.718Z,20.20
2018-08-16T07:08:06.281Z,20.30
2018-08-16T07:10:35.505Z,20.50
2018-08-16T07:13:03.566Z,20.90
2018-08-16T07:15:31.617Z,20.90
2018-08-16T07:17:59.709Z,21.10
2018-08-16T07:20:27.783Z,21.10
2018-08-16T07:22:55.889Z,21.10
2018-08-16T07:25:23.933Z,21.10
2018-08-16T07:27:52.029Z,21.10
2018-08-16T07:30:20.089Z,21.10
2018-08-16T07:32:48.148Z,21.10
2018-08-16T07:35:16.212Z,21.20
2018-08-16T07:37:44.284Z,21.20
2018-08-16T07:40:12.709Z,21.30
2018-08-16T07:42:40.763Z,21.40
2018-08-16T07:45:10.082Z,21.50
2018-08-16T07:47:38.305Z,21.50
2018-08-16T07:50:08.114Z,21.70
2018-08-16T07:52:36.191Z,21.60
2018-08-16T07:55:04.598Z,21.70
2018-08-16T07:57:32.673Z,21.70
2018-08-16T08:00:00.720Z,21.80
2018-08-16T08:02:28.765Z,21.90
2018-08-16T08:04:56.833Z,22.10
2018-08-16T08:07:24.911Z,22.20
2018-08-16T08:09:53.105Z,22.20
2018-08-16T08:12:21.025Z,22.20
2018-08-16T08:14:49.073Z,22.20
2018-08-16T08:17:17.135Z,22.00
2018-08-16T08:19:45.202Z,21.90
2018-08-16T08:22:13.922Z,22.00
2018-08-16T08:24:41.994Z,22.20
2018-08-16T08:27:10.142Z,22.40
2018-08-16T08:29:38.201Z,22.50
2018-08-16T08:32:06.593Z,22.40
2018-08-16T08:34:37.391Z,22.60
2018-08-16T08:37:17.912Z,22.60
2018-08-16T08:39:45.978Z,22.70
2018-08-16T08:42:14.715Z,22.80
2018-08-16T08:44:42.772Z,22.80
2018-08-16T08:47:10.829Z,22.70
2018-08-16T08:49:38.925Z,22.90
2018-08-16T08:52:06.966Z,22.90
2018-08-16T08:54:51.677Z,22.90
2018-08-16T08:57:31.970Z,22.90
2018-08-16T09:00:00.036Z,23.10
2018-08-16T09:02:28.102Z,23.30
2018-08-16T09:04:56.178Z,23.50
2018-08-16T09:07:24.654Z,23.60
2018-08-16T09:11:07.638Z,23.50
2018-08-16T09:13:47.126Z,23.20
2018-08-16T09:16:22.069Z,23.10
2018-08-16T09:18:50.166Z,23.30
2018-08-16T09:21:18.277Z,23.10
2018-08-16T09:23:46.479Z,23.10
2018-08-16T09:26:19.937Z,23.10
2018-08-16T09:28:47.995Z,23.10
2018-08-16T09:31:27.730Z,23.00
2018-08-16T09:34:19.721Z,22.90
2018-08-16T09:36:47.806Z,22.80
2018-08-16T09:39:15.903Z,23.00
2018-08-16T09:41:43.901Z,23.10
2018-08-16T09:44:11.938Z,23.30
2018-08-16T09:46:55.457Z,23.40
2018-08-16T09:49:23.497Z,23.60
2018-08-16T09:51:51.579Z,23.70
2018-08-16T09:54:19.624Z,23.70
2018-08-16T09:56:48.137Z,23.70
2018-08-16T09:59:16.624Z,23.80
2018-08-16T10:01:44.686Z,24.10
2018-08-16T10:04:12.811Z,24.30
2018-08-16T10:06:41.751Z,24.10
2018-08-16T10:09:11.744Z,23.90
2018-08-16T10:11:39.822Z,23.90
2018-08-16T10:14:07.890Z,23.90
2018-08-16T10:16:36.270Z,23.90
2018-08-16T10:19:04.615Z,23.90
2018-08-16T10:21:32.658Z,23.70
2018-08-16T10:24:00.785Z,23.70
2018-08-16T10:26:28.849Z,23.70
2018-08-16T10:28:56.921Z,23.80
2018-08-16T10:31:24.969Z,23.70
2018-08-16T10:33:53.229Z,23.70
2018-08-16T10:36:21.453Z,23.90
2018-08-16T10:38:49.530Z,24.10
2018-08-16T10:41:17.590Z,24.30
2018-08-16T10:43:45.665Z,24.50
2018-08-16T10:46:13.726Z,24.50
2018-08-16T10:48:41.801Z,24.50
2018-08-16T10:51:09.902Z,24.60
2018-08-16T10:53:37.971Z,24.70
2018-08-16T10:56:06.356Z,24.70
2018-08-16T10:58:34.473Z,24.90
2018-08-16T11:01:02.590Z,25.00
2018-08-16T11:03:30.985Z,25.00
2018-08-16T11:05:59.154Z,24.80
2018-08-16T11:08:27.214Z,24.70
2018-08-16T11:10:55.276Z,24.70
2018-08-16T11:13:23.368Z,24.00
2018-08-16T11:15:51.417Z,24.90
2018-08-16T11:18:19.487Z,25.00
2018-08-16T11:20:47.530Z,25.00
2018-08-16T11:23:15.696Z,24.80
2018-08-16T11:25:43.852Z,24.90
2018-08-16T11:28:11.897Z,24.80
2018-08-16T11:30:39.994Z,24.80
2018-08-16T11:33:08.530Z,25.00
2018-08-16T11:35:36.586Z,25.20
2018-08-16T11:38:04.749Z,25.20
2018-08-16T11:40:32.837Z,25.30
2018-08-16T11:43:00.891Z,25.40
2018-08-16T11:45:29.209Z,25.20
2018-08-16T11:47:57.257Z,25.20
2018-08-16T11:50:25.336Z,25.10
2018-08-16T11:52:53.374Z,25.20
2018-08-16T11:55:21.438Z,25.50
2018-08-16T11:57:49.509Z,25.90
2018-08-16T12:00:17.581Z,25.80
2018-08-16T12:02:45.662Z,25.70
2018-08-16T12:05:14.375Z,25.90
2018-08-16T12:07:42.683Z,25.80
2018-08-16T12:10:10.783Z,25.80
2018-08-16T12:12:38.826Z,26.10
2018-08-16T12:15:07.907Z,26.00
2018-08-16T12:17:35.943Z,26.10
2018-08-16T12:20:04.890Z,26.10
2018-08-16T12:22:32.975Z,26.20
2018-08-16T12:25:01.018Z,26.40
2018-08-16T12:27:30.104Z,26.20
2018-08-16T12:29:58.162Z,25.90
2018-08-16T12:32:26.422Z,25.90
2018-08-16T12:34:54.537Z,26.30
2018-08-16T12:37:22.558Z,26.30
2018-08-16T12:39:50.609Z,26.20
2018-08-16T12:42:18.742Z,26.10
2018-08-16T12:44:46.750Z,26.40
2018-08-16T12:47:16.080Z,26.70
2018-08-16T12:49:44.149Z,26.70
2018-08-16T12:52:12.210Z,26.60
2018-08-16T12:54:40.343Z,26.30
2018-08-16T12:57:08.401Z,26.30
2018-08-16T12:59:36.470Z,26.50
2018-08-16T13:02:04.537Z,26.80
2018-08-16T13:04:32.594Z,27.00
2018-08-16T13:07:00.642Z,26.80
2018-08-16T13:09:28.757Z,26.70
2018-08-16T13:11:56.823Z,26.70
2018-08-16T13:14:24.878Z,26.70
2018-08-16T13:16:53.657Z,26.60
2018-08-16T13:19:21.794Z,26.70
2018-08-16T13:21:49.894Z,26.70
2018-08-16T13:24:17.946Z,26.80
2018-08-16T13:26:46.013Z,26.90
2018-08-16T13:29:14.185Z,26.80
2018-08-16T13:31:42.257Z,27.00
2018-08-16T13:34:10.358Z,27.20
2018-08-16T13:36:38.439Z,27.30
2018-08-16T13:39:09.565Z,27.20
2018-08-16T13:41:37.753Z,27.20
2018-08-16T13:44:05.972Z,27.30
2018-08-16T13:46:34.414Z,27.50
2018-08-16T13:49:02.494Z,27.40
2018-08-16T13:51:30.577Z,27.60
2018-08-16T13:53:58.626Z,27.70
2018-08-16T13:56:26.686Z,27.70
2018-08-16T13:58:54.732Z,27.80
2018-08-16T14:01:22.860Z,28.00
2018-08-16T14:03:51.050Z,28.20
2018-08-16T14:06:19.100Z,28.10
2018-08-16T14:08:47.190Z,28.40
2018-08-16T14:11:15.287Z,28.60
2018-08-16T14:13:43.334Z,28.80
2018-08-16T14:16:11.400Z,29.00
2018-08-16T14:18:39.483Z,29.00
2018-08-16T14:21:07.856Z,28.80
2018-08-16T14:23:35.901Z,28.80
2018-08-16T14:26:03.984Z,29.10
2018-08-16T14:28:32.033Z,29.40
2018-08-16T14:31:00.318Z,29.60
2018-08-16T14:33:28.396Z,29.80
2018-08-16T14:35:56.483Z,28.90
2018-08-16T14:38:24.529Z,28.70
2018-08-16T14:40:52.885Z,28.90
2018-08-16T14:43:20.955Z,28.60
2018-08-16T14:45:49.053Z,28.40
2018-08-16T14:50:51.657Z,29.00
2018-08-16T14:53:19.722Z,29.40
2018-08-16T14:55:47.781Z,29.40
2018-08-16T14:58:22.464Z,29.70
2018-08-16T15:00:50.510Z,29.10
2018-08-16T15:03:18.558Z,29.10
2018-08-16T15:05:46.597Z,29.00
2018-08-16T15:08:14.674Z,29.00
2018-08-16T15:10:42.787Z,29.00
2018-08-16T15:13:10.812Z,29.10
2018-08-16T15:15:38.871Z,28.90
2018-08-16T15:18:06.986Z,28.80
2018-08-16T15:20:35.038Z,28.40
2018-08-16T15:23:03.118Z,28.00
2018-08-16T15:25:31.385Z,27.90
2018-08-16T15:27:59.448Z,27.90
2018-08-16T15:30:27.533Z,28.00
2018-08-16T15:32:55.589Z,28.00
2018-08-16T15:35:23.634Z,28.10
2018-08-16T15:37:51.822Z,28.40
2018-08-16T15:40:20.098Z,28.40
2018-08-16T15:42:48.156Z,28.60
2018-08-16T15:45:16.197Z,28.40
2018-08-16T15:47:44.252Z,28.70
2018-08-16T15:50:12.309Z,28.70
2018-08-16T15:52:40.403Z,29.00
2018-08-16T15:55:08.468Z,28.70
2018-08-16T15:57:36.521Z,28.80
2018-08-16T16:00:05.434Z,28.90
2018-08-16T16:02:33.494Z,28.80
2018-08-16T16:05:01.540Z,29.00
2018-08-16T16:07:29.606Z,29.30
2018-08-16T16:09:57.670Z,29.30
2018-08-16T16:12:25.763Z,29.40
2018-08-16T16:14:53.809Z,29.70
2018-08-16T16:17:21.964Z,30.00
2018-08-16T16:19:49.905Z,30.00
2018-08-16T16:22:18.014Z,30.70
2018-08-16T16:24:46.099Z,30.70
2018-08-16T16:27:14.134Z,30.50
2018-08-16T16:29:42.195Z,30.00
2018-08-16T16:32:10.929Z,29.90
2018-08-16T16:34:38.984Z,29.60
2018-08-16T16:37:07.449Z,29.40
2018-08-16T16:39:35.505Z,28.80
2018-08-16T16:42:03.561Z,28.60
2018-08-16T16:44:31.630Z,28.40
2018-08-16T16:46:59.702Z,28.40
2018-08-16T16:49:27.767Z,28.10
2018-08-16T16:51:55.809Z,28.00
2018-08-16T16:54:23.873Z,28.00
2018-08-16T16:56:52.144Z,27.80
2018-08-16T16:59:20.203Z,28.90
2018-08-16T17:01:48.253Z,28.00
2018-08-16T17:04:16.474Z,27.90
2018-08-16T17:06:44.458Z,27.70
2018-08-16T17:09:13.787Z,27.70
2018-08-16T17:11:42.394Z,27.60
2018-08-16T17:14:10.685Z,27.60
2018-08-16T17:16:38.739Z,27.50
2018-08-16T17:19:06.852Z,27.40
2018-08-16T17:21:34.950Z,27.40
2018-08-16T17:24:03.002Z,27.40
2018-08-16T17:26:31.268Z,27.50
2018-08-16T17:28:59.276Z,27.30
2018-08-16T17:31:27.382Z,27.20
2018-08-16T17:33:55.405Z,27.20
2018-08-16T17:36:23.457Z,27.20
2018-08-16T17:38:51.551Z,27.20
2018-08-16T17:41:19.611Z,27.00
2018-08-16T17:43:47.653Z,26.90
2018-08-16T17:46:15.729Z,26.80
2018-08-16T17:48:44.536Z,26.80
2018-08-16T17:51:13.563Z,26.60
2018-08-16T17:53:41.839Z,26.60
2018-08-16T17:56:09.988Z,26.50
2018-08-16T17:58:38.929Z,26.40
2018-08-16T18:01:07.040Z,26.40
2018-08-16T18:03:35.769Z,26.30
2018-08-16T18:06:04.086Z,26.30
2018-08-16T18:08:32.373Z,26.30
2018-08-16T18:11:00.414Z,26.20
2018-08-16T18:13:28.472Z,26.20
2018-08-16T18:15:56.549Z,26.10
2018-08-16T18:18:24.610Z,26.10
2018-08-16T18:20:52.657Z,26.00
2018-08-16T18:23:20.869Z,25.90
2018-08-16T18:25:48.923Z,25.80
2018-08-16T18:28:17.364Z,25.80
2018-08-16T18:30:45.473Z,25.90
2018-08-16T18:33:13.545Z,25.80
2018-08-16T18:35:41.590Z,25.90
2018-08-16T18:38:09.886Z,25.80
2018-08-16T18:40:38.713Z,25.70
2018-08-16T18:43:06.818Z,25.70
2018-08-16T18:45:34.850Z,25.60
2018-08-16T18:48:02.954Z,25.60
2018-08-16T18:50:31.002Z,25.50
2018-08-16T18:52:59.057Z,25.50
2018-08-16T18:55:27.169Z,25.40
2018-08-16T18:57:55.228Z,25.40
2018-08-16T19:00:23.283Z,25.30
2018-08-16T19:02:51.345Z,25.30
2018-08-16T19:05:19.463Z,25.20
2018-08-16T19:07:47.487Z,25.30
2018-08-16T19:10:15.557Z,25.30
2018-08-16T19:12:43.629Z,25.20
2018-08-16T19:15:11.686Z,25.20
2018-08-16T19:17:39.770Z,25.10
2018-08-16T19:20:08.257Z,25.00
2018-08-16T19:22:36.313Z,24.90
2018-08-16T19:25:05.562Z,24.80
2018-08-16T19:27:33.683Z,24.70
2018-08-16T19:30:02.795Z,24.70
2018-08-16T19:32:31.310Z,24.70
2018-08-16T19:34:59.377Z,24.60
2018-08-16T19:37:27.425Z,24.50
2018-08-16T19:39:55.497Z,24.40
2018-08-16T19:42:23.562Z,24.40
2018-08-16T19:44:51.618Z,24.20
2018-08-16T19:47:19.697Z,24.10
2018-08-16T19:49:47.749Z,24.00
2018-08-16T19:52:15.958Z,24.10
2018-08-16T19:54:44.550Z,24.10
2018-08-16T19:57:12.626Z,23.90
2018-08-16T19:59:40.698Z,23.70
2018-08-16T20:02:08.778Z,23.70
2018-08-16T20:04:36.909Z,23.70
2018-08-16T20:07:06.610Z,23.70
2018-08-16T20:09:34.672Z,23.60
2018-08-16T20:12:02.724Z,23.50
2018-08-16T20:14:30.938Z,23.20
2018-08-16T20:16:58.996Z,23.40
2018-08-16T20:19:27.093Z,23.30
2018-08-16T20:21:55.125Z,23.20
2018-08-16T20:24:23.516Z,23.20
2018-08-16T20:26:51.549Z,23.10
2018-08-16T20:29:19.602Z,23.10
2018-08-16T20:31:47.835Z,23.10
2018-08-16T20:34:15.886Z,23.10
2018-08-16T20:36:43.930Z,23.00
2018-08-16T20:39:13.913Z,22.90
2018-08-16T20:41:42.118Z,22.90
2018-08-16T20:44:10.385Z,22.80
2018-08-16T20:46:38.449Z,22.80
2018-08-16T20:49:06.501Z,22.70
2018-08-16T20:51:34.561Z,22.60
2018-08-16T20:54:02.632Z,22.60
2018-08-16T20:56:30.685Z,22.50
2018-08-16T20:58:58.806Z,22.20
2018-08-16T21:01:26.862Z,22.20
2018-08-16T21:03:54.912Z,22.40
2018-08-16T21:06:22.982Z,22.20
2018-08-16T21:08:51.038Z,22.10
2018-08-16T21:11:19.089Z,21.90
2018-08-16T21:13:47.158Z,21.90
2018-08-16T21:16:15.254Z,21.80
2018-08-16T21:18:43.330Z,21.90
2018-08-16T21:21:12.358Z,21.80
2018-08-16T21:23:40.400Z,21.90
2018-08-16T21:26:08.449Z,21.80
2018-08-16T21:28:36.507Z,21.90
2018-08-16T21:31:04.572Z,21.60
2018-08-16T21:33:32.633Z,21.60
2018-08-16T21:36:00.694Z,21.40
2018-08-16T21:38:28.736Z,21.40
2018-08-16T21:40:56.774Z,21.30
2018-08-16T21:43:24.833Z,21.40
2018-08-16T21:45:52.871Z,21.30
2018-08-16T21:48:20.936Z,21.30
2018-08-16T21:50:49.195Z,21.30
2018-08-16T21:53:17.241Z,21.30
2018-08-16T21:55:45.295Z,21.30
2018-08-16T21:58:13.363Z,21.20
2018-08-16T22:00:51.430Z,21.10
2018-08-16T22:03:21.708Z,21.10
2018-08-16T22:05:56.662Z,21.00
2018-08-16T22:08:26.305Z,20.80
2018-08-16T22:10:54.362Z,20.80
2018-08-16T22:13:22.417Z,20.70
2018-08-16T22:15:50.449Z,20.60
2018-08-16T22:18:18.525Z,20.70
2018-08-16T22:20:46.583Z,20.70
2018-08-16T22:23:14.658Z,20.70
2018-08-16T22:25:42.736Z,20.70
2018-08-16T22:28:11.272Z,20.60
2018-08-16T22:30:39.305Z,20.70
2018-08-16T22:33:07.684Z,20.60
2018-08-16T22:35:35.709Z,20.60
2018-08-16T22:38:03.762Z,20.50
2018-08-16T22:40:31.830Z,20.40
2018-08-16T22:42:59.876Z,20.40
2018-08-16T22:45:27.924Z,20.40
2018-08-16T22:47:55.975Z,20.50
2018-08-16T22:50:24.033Z,20.50
2018-08-16T22:52:52.628Z,20.40
2018-08-16T22:55:20.685Z,20.30
2018-08-16T22:57:48.745Z,20.20
2018-08-16T23:00:16.988Z,20.20
2018-08-16T23:02:45.038Z,20.10
2018-08-16T23:05:13.194Z,20.00
2018-08-16T23:07:41.249Z,20.20
2018-08-16T23:10:09.301Z,19.90
2018-08-16T23:12:37.359Z,19.90
2018-08-16T23:15:05.813Z,19.90
2018-08-16T23:17:33.880Z,19.80
2018-08-16T23:20:01.918Z,19.90
2018-08-16T23:22:29.990Z,20.00
2018-08-16T23:24:58.033Z,20.00
2018-08-16T23:27:26.093Z,20.00
2018-08-16T23:29:54.149Z,20.00
2018-08-16T23:32:22.222Z,19.90
2018-08-16T23:34:50.289Z,19.90
2018-08-16T23:37:18.341Z,19.80
2018-08-16T23:39:46.605Z,19.60
2018-08-16T23:42:14.669Z,19.60
2018-08-16T23:44:42.731Z,19.70
2018-08-16T23:47:10.896Z,19.70
2018-08-16T23:49:39.002Z,19.70
2018-08-16T23:52:07.057Z,19.60
2018-08-16T23:54:35.100Z,19.70
2018-08-16T23:57:03.185Z,19.60
2018-08-16T23:59:31.245Z,19.70
